createdAt,value
2023-01-26T00:03:34.630Z,0.15
2023-01-26T00:08:42.418Z,0.14
2023-01-26T00:13:46.278Z,0.09
2023-01-26T00:18:50.067Z,0.08
2023-01-26T00:23:54.050Z,0.10
2023-01-26T00:28:57.606Z,0.14
2023-01-26T00:34:01.021Z,0.18
2023-01-26T00:39:04.746Z,0.19
2023-01-26T00:44:08.357Z,0.21
2023-01-26T00:49:11.977Z,0.24
2023-01-26T00:54:15.694Z,0.22
2023-01-26T00:59:19.215Z,0.21
2023-01-26T01:04:22.728Z,0.22
2023-01-26T01:09:26.553Z,0.22
2023-01-26T01:14:30.308Z,0.20
2023-01-26T01:19:33.787Z,0.26
2023-01-26T01:24:37.883Z,0.28
2023-01-26T01:29:41.328Z,0.29
2023-01-26T01:34:47.514Z,0.24
2023-01-26T01:39:50.918Z,0.23
2023-01-26T01:45:32.424Z,0.26
2023-01-26T01:50:39.649Z,0.28
2023-01-26T01:55:43.551Z,0.25
2023-01-26T02:00:46.887Z,0.24
2023-01-26T02:06:22.432Z,0.20
2023-01-26T02:11:45.217Z,0.22
2023-01-26T02:16:48.715Z,0.20
2023-01-26T02:21:53.592Z,0.19
2023-01-26T02:26:57.485Z,0.22
2023-01-26T02:32:00.895Z,0.24
2023-01-26T02:37:04.424Z,0.29
2023-01-26T02:42:26.561Z,0.35
2023-01-26T02:47:30.107Z,0.39
2023-01-26T02:52:33.807Z,0.44
2023-01-26T02:57:37.722Z,0.54
2023-01-26T03:02:42.578Z,0.55
2023-01-26T03:07:46.499Z,0.57
2023-01-26T03:12:50.014Z,0.58
2023-01-26T03:18:13.291Z,0.49
2023-01-26T03:23:35.137Z,0.46
2023-01-26T03:28:38.549Z,0.43
2023-01-26T03:33:42.172Z,0.43
2023-01-26T03:38:45.785Z,0.39
2023-01-26T03:44:07.737Z,0.34
2023-01-26T03:49:29.985Z,0.36
2023-01-26T03:54:52.344Z,0.44
2023-01-26T03:59:56.079Z,0.47
2023-01-26T04:05:18.431Z,0.52
2023-01-26T04:10:23.174Z,0.53
2023-01-26T04:15:45.007Z,0.53
2023-01-26T04:21:07.376Z,0.55
2023-01-26T04:26:10.780Z,0.55
2023-01-26T04:31:16.486Z,0.53
2023-01-26T04:36:20.063Z,0.54
2023-01-26T04:41:24.254Z,0.55
2023-01-26T04:46:28.066Z,0.58
2023-01-26T04:51:31.529Z,0.61
2023-01-26T04:56:36.673Z,0.64
2023-01-26T05:01:40.813Z,0.67
2023-01-26T05:06:44.747Z,0.71
2023-01-26T05:11:48.267Z,0.76
2023-01-26T05:16:51.717Z,0.79
2023-01-26T05:21:55.282Z,0.81
2023-01-26T05:27:18.664Z,0.82
2023-01-26T05:32:22.492Z,0.77
2023-01-26T05:37:27.687Z,0.73
2023-01-26T05:42:31.164Z,0.74
2023-01-26T05:47:34.774Z,0.75
2023-01-26T05:52:38.601Z,0.75
2023-01-26T05:57:42.119Z,0.74
2023-01-26T06:02:47.536Z,0.76
2023-01-26T06:07:52.214Z,0.73
2023-01-26T06:12:55.739Z,0.68
2023-01-26T06:18:02.018Z,0.69
2023-01-26T06:23:06.037Z,0.69
2023-01-26T06:28:09.553Z,0.66
2023-01-26T06:33:13.173Z,0.70
2023-01-26T06:38:16.892Z,0.75
2023-01-26T06:43:20.203Z,0.79
2023-01-26T06:48:25.770Z,0.84
2023-01-26T06:53:42.076Z,0.86
2023-01-26T06:58:45.605Z,0.84
2023-01-26T07:03:50.045Z,0.86
2023-01-26T07:08:53.443Z,0.94
2023-01-26T07:13:57.455Z,1.02
2023-01-26T07:19:01.399Z,1.10
2023-01-26T07:24:05.256Z,1.17
2023-01-26T07:29:08.838Z,1.24
2023-01-26T07:34:13.060Z,1.34
2023-01-26T07:39:16.379Z,1.47
2023-01-26T07:44:20.006Z,1.52
2023-01-26T07:49:24.026Z,1.57
2023-01-26T07:54:27.440Z,1.65
2023-01-26T07:59:31.193Z,1.70
2023-01-26T08:04:34.573Z,1.65
2023-01-26T08:09:38.190Z,1.56
2023-01-26T08:14:47.094Z,1.55
2023-01-26T08:19:50.751Z,1.56
2023-01-26T08:24:54.266Z,1.52
2023-01-26T08:29:57.884Z,1.53
2023-01-26T08:35:01.404Z,1.58
2023-01-26T08:40:05.731Z,1.65
2023-01-26T08:45:10.041Z,1.75
2023-01-26T08:50:13.610Z,1.86
2023-01-26T08:55:17.513Z,2.01
2023-01-26T09:00:22.323Z,2.11
2023-01-26T09:05:25.874Z,2.19
2023-01-26T09:10:29.491Z,2.21
2023-01-26T09:15:32.907Z,2.30
2023-01-26T09:20:38.572Z,2.40
2023-01-26T09:25:42.084Z,2.42
2023-01-26T09:30:45.805Z,2.40
2023-01-26T09:35:50.341Z,2.37
2023-01-26T09:40:56.633Z,2.37
2023-01-26T09:46:18.784Z,2.41
2023-01-26T09:52:00.875Z,2.49
2023-01-26T09:57:16.715Z,2.56
2023-01-26T10:02:34.395Z,2.48
2023-01-26T10:07:37.962Z,2.52
2023-01-26T10:12:41.485Z,2.49
2023-01-26T10:17:47.395Z,2.49
2023-01-26T10:23:02.677Z,2.52
2023-01-26T10:28:19.573Z,2.64
2023-01-26T10:33:32.849Z,2.68
2023-01-26T10:38:36.642Z,2.67
2023-01-26T10:44:00.121Z,2.72
2023-01-26T10:49:09.677Z,2.68
2023-01-26T10:54:20.063Z,2.63
2023-01-26T10:59:33.931Z,2.60
2023-01-26T11:04:37.835Z,2.56
2023-01-26T11:09:41.557Z,2.48
2023-01-26T11:15:04.437Z,2.47
2023-01-26T11:20:45.024Z,2.45
2023-01-26T11:26:13.923Z,2.45
2023-01-26T11:31:33.150Z,2.48
2023-01-26T11:36:39.486Z,2.47
2023-01-26T11:42:13.528Z,2.50
2023-01-26T11:47:38.945Z,2.58
2023-01-26T11:52:49.223Z,2.67
2023-01-26T11:58:08.406Z,2.79
2023-01-26T12:03:48.579Z,2.89
2023-01-26T12:09:23.226Z,2.95
2023-01-26T12:14:42.916Z,2.86
2023-01-26T12:20:05.284Z,2.77
2023-01-26T12:25:33.992Z,2.66
2023-01-26T12:30:43.948Z,2.52
2023-01-26T12:36:13.069Z,2.48
2023-01-26T12:41:33.189Z,2.59
2023-01-26T12:46:43.748Z,2.61
2023-01-26T12:52:18.905Z,2.54
2023-01-26T12:57:30.206Z,2.56
2023-01-26T13:02:36.257Z,2.52
2023-01-26T13:07:40.924Z,2.36
2023-01-26T13:12:48.647Z,2.19
2023-01-26T13:17:58.292Z,2.16
2023-01-26T13:23:01.811Z,2.11
2023-01-26T13:28:13.630Z,2.08
2023-01-26T13:33:23.385Z,2.09
2023-01-26T13:38:45.338Z,2.05
2023-01-26T13:43:58.896Z,2.03
2023-01-26T13:49:02.594Z,2.02
2023-01-26T13:54:18.108Z,2.02
2023-01-26T13:59:23.141Z,2.07
2023-01-26T14:04:28.094Z,2.04
2023-01-26T14:09:34.328Z,1.97
2023-01-26T14:14:38.417Z,1.89
2023-01-26T14:19:42.544Z,1.85
2023-01-26T14:24:50.492Z,1.87
2023-01-26T14:29:53.863Z,1.82
2023-01-26T14:35:00.886Z,1.87
2023-01-26T14:40:30.807Z,1.94
2023-01-26T14:45:34.730Z,1.92
2023-01-26T14:50:39.853Z,1.90
2023-01-26T14:55:44.618Z,1.96
2023-01-26T15:00:50.508Z,1.98
2023-01-26T15:06:19.006Z,2.02
2023-01-26T15:11:53.743Z,2.10
2023-01-26T15:16:57.052Z,2.16
2023-01-26T15:22:00.969Z,2.18
2023-01-26T15:27:07.764Z,2.20
2023-01-26T15:32:29.478Z,2.12
2023-01-26T15:37:35.074Z,2.14
2023-01-26T15:42:38.800Z,2.12
2023-01-26T15:47:42.203Z,2.16
2023-01-26T15:52:45.617Z,2.15
2023-01-26T15:57:49.440Z,2.07
2023-01-26T16:02:52.956Z,1.89
2023-01-26T16:07:56.482Z,1.76
2023-01-26T16:13:00.294Z,1.70
2023-01-26T16:18:04.220Z,1.67
2023-01-26T16:23:32.107Z,1.69
2023-01-26T16:28:35.517Z,1.61
2023-01-26T16:33:39.030Z,1.52
2023-01-26T16:38:43.075Z,1.51
2023-01-26T16:43:46.473Z,1.54
2023-01-26T16:48:50.405Z,1.59
2023-01-26T16:53:54.719Z,1.64
2023-01-26T16:59:01.527Z,1.69
2023-01-26T17:04:05.859Z,1.77
2023-01-26T17:09:10.705Z,1.77
2023-01-26T17:14:14.288Z,1.67
2023-01-26T17:19:17.842Z,1.58
2023-01-26T17:24:21.278Z,1.51
2023-01-26T17:29:24.766Z,1.45
2023-01-26T17:34:28.809Z,1.47
2023-01-26T17:39:32.310Z,1.46
2023-01-26T17:44:35.831Z,1.44
2023-01-26T17:49:39.444Z,1.32
2023-01-26T17:54:42.871Z,1.26
2023-01-26T17:59:46.372Z,1.29
2023-01-26T18:22:44.303Z,1.73
2023-01-26T18:27:47.815Z,1.78
2023-01-26T18:32:51.843Z,1.67
2023-01-26T18:37:55.464Z,1.60
2023-01-26T18:42:58.906Z,1.52
2023-01-26T18:48:02.392Z,1.45
2023-01-26T18:53:05.699Z,1.37
2023-01-26T18:58:09.118Z,1.40
2023-01-26T19:03:12.544Z,1.47
2023-01-26T19:08:17.889Z,1.47
2023-01-26T19:13:21.093Z,1.48
2023-01-26T19:18:24.710Z,1.59
2023-01-26T19:23:28.330Z,1.78
2023-01-26T19:28:31.641Z,1.88
2023-01-26T19:33:35.359Z,1.95
2023-01-26T19:38:40.012Z,2.02
2023-01-26T19:43:44.668Z,2.16
2023-01-26T19:48:49.294Z,2.17
2023-01-26T19:53:56.460Z,2.04
2023-01-26T19:59:03.416Z,1.95
2023-01-26T20:04:09.571Z,1.86
2023-01-26T20:09:12.971Z,1.80
2023-01-26T20:14:16.317Z,1.74
2023-01-26T20:19:19.795Z,1.68
2023-01-26T20:24:23.364Z,1.61
2023-01-26T20:29:26.826Z,1.56
2023-01-26T20:34:30.447Z,1.51
2023-01-26T20:39:34.500Z,1.46
2023-01-26T20:44:38.703Z,1.46
2023-01-26T20:49:44.472Z,1.33
2023-01-26T20:54:48.296Z,1.24
2023-01-26T20:59:52.954Z,1.21
2023-01-26T21:04:56.362Z,1.18
2023-01-26T21:09:59.973Z,1.19
2023-01-26T21:15:05.372Z,1.19
2023-01-26T21:20:10.698Z,1.17
2023-01-26T21:25:14.507Z,1.16
2023-01-26T21:30:18.512Z,1.19
2023-01-26T21:35:21.949Z,1.17
2023-01-26T21:40:25.725Z,1.11
2023-01-26T21:45:48.051Z,1.08
2023-01-26T21:51:14.379Z,1.09
2023-01-26T21:56:17.819Z,1.06
2023-01-26T22:01:22.545Z,1.09
2023-01-26T22:06:26.873Z,1.05
2023-01-26T22:11:30.184Z,1.05
2023-01-26T22:16:33.950Z,1.01
2023-01-26T22:21:38.040Z,0.96
2023-01-26T22:26:42.569Z,0.94
2023-01-26T22:31:46.127Z,0.96
2023-01-26T22:36:49.816Z,0.93
2023-01-26T22:41:53.263Z,1.00
2023-01-26T22:46:56.732Z,1.04
2023-01-26T22:52:00.462Z,1.01
2023-01-26T22:57:04.933Z,1.05
2023-01-26T23:02:08.203Z,1.06
2023-01-26T23:07:11.820Z,1.09
2023-01-26T23:12:15.333Z,1.19
2023-01-26T23:17:18.753Z,1.26
2023-01-26T23:22:22.482Z,1.25
2023-01-26T23:27:26.291Z,1.24
2023-01-26T23:32:29.711Z,1.30
2023-01-26T23:37:33.217Z,1.21
2023-01-26T23:42:55.820Z,1.14
2023-01-26T23:48:00.836Z,1.11
2023-01-26T23:53:04.656Z,1.18
2023-01-26T23:58:08.889Z,1.31
